Time;durP1;ratioP1;P1;durP2;ratioP2;P2;SDS_P1;SDS_P2;PMS_P1;PMS_P2;Temp;Humidity;BMP_temperature;BMP_pressure;BME280_temperature;BME280_humidity;BME280_pressure;Samples;Min_cycle;Max_cycle;Signal;HPM_P1;HPM_P2
2020/12/26 00:01:37;;;;;;;40.28;19.63;;;;;;;0.91;100.00;102650.19;4949539;29;20486;-65
2020/12/26 00:04:03;;;;;;;38.97;18.70;;;;;;;0.92;100.00;102654.53;4950604;28;20089;-65
2020/12/26 00:06:29;;;;;;;37.78;19.48;;;;;;;0.97;100.00;102646.44;4949634;28;20031;-65
2020/12/26 00:08:55;;;;;;;39.20;18.17;;;;;;;1.02;100.00;102653.25;4949772;28;20061;-65
2020/12/26 00:11:21;;;;;;;36.22;19.00;;;;;;;1.15;100.00;102656.25;4950345;29;20036;-66
2020/12/26 00:13:49;;;;;;;42.50;18.55;;;;;;;1.18;100.00;102648.22;4949687;28;20176;-66
2020/12/26 00:16:15;;;;;;;41.72;17.50;;;;;;;1.23;100.00;102653.31;4949942;28;20031;-66
2020/12/26 00:18:42;;;;;;;38.33;17.88;;;;;;;1.24;100.00;102661.19;4949587;29;20041;-66
2020/12/26 00:21:09;;;;;;;44.53;16.35;;;;;;;1.29;100.00;102653.94;4949810;28;20055;-65
2020/12/26 00:23:35;;;;;;;34.22;16.00;;;;;;;1.32;100.00;102660.91;4950619;28;20035;-65
2020/12/26 00:26:01;;;;;;;39.40;18.63;;;;;;;1.36;100.00;102664.28;4952796;29;20086;-66
2020/12/26 00:28:27;;;;;;;44.00;15.98;;;;;;;1.39;100.00;102653.56;4951506;28;20484;-66
2020/12/26 00:30:53;;;;;;;30.30;15.20;;;;;;;1.41;100.00;102664.97;4953921;28;20496;-66
2020/12/26 00:33:18;;;;;;;39.40;15.77;;;;;;;1.44;100.00;102655.09;4953494;29;20039;-66
2020/12/26 00:35:44;;;;;;;30.42;15.57;;;;;;;1.52;100.00;102652.13;4955090;28;20039;-66
2020/12/26 00:38:09;;;;;;;32.53;15.20;;;;;;;1.53;100.00;102651.22;4953069;28;20036;-65
2020/12/26 00:40:35;;;;;;;35.78;14.60;;;;;;;1.59;100.00;102652.72;4949693;28;20577;-66
2020/12/26 00:43:00;;;;;;;27.10;13.93;;;;;;;1.61;100.00;102646.47;4953325;28;20053;-66
2020/12/26 00:45:26;;;;;;;25.10;13.27;;;;;;;1.64;100.00;102648.09;4953743;28;20098;-66
2020/12/26 00:47:51;;;;;;;29.77;13.40;;;;;;;1.66;100.00;102647.13;4952290;28;20074;-65
2020/12/26 00:50:17;;;;;;;37.40;13.95;;;;;;;1.74;100.00;102636.22;4953246;28;20139;-66
2020/12/26 00:52:43;;;;;;;31.48;12.18;;;;;;;1.85;100.00;102641.03;4952811;28;20404;-65
2020/12/26 00:55:08;;;;;;;28.55;12.85;;;;;;;1.86;100.00;102643.63;4953628;28;20027;-65
2020/12/26 00:57:34;;;;;;;32.20;13.23;;;;;;;1.90;100.00;102634.63;4952316;28;20114;-66
2020/12/26 01:00:00;;;;;;;29.95;12.15;;;;;;;1.94;100.00;102635.34;4953237;28;20023;-66
2020/12/26 01:02:25;;;;;;;26.60;11.90;;;;;;;2.03;100.00;102634.94;4952677;28;20028;-65
2020/12/26 01:04:51;;;;;;;25.98;12.50;;;;;;;2.00;100.00;102630.63;4953160;29;20028;-66
2020/12/26 01:07:17;;;;;;;25.63;11.38;;;;;;;2.00;100.00;102621.84;4952784;29;20037;-66
2020/12/26 01:09:42;;;;;;;25.05;11.02;;;;;;;2.04;100.00;102629.59;4952540;28;20039;-65
2020/12/26 01:12:08;;;;;;;26.77;11.45;;;;;;;2.06;100.00;102629.53;4953344;29;20527;-66
2020/12/26 01:14:33;;;;;;;21.50;10.02;;;;;;;2.15;100.00;102628.25;4952425;29;20492;-66
2020/12/26 01:16:59;;;;;;;22.70;11.05;;;;;;;2.16;100.00;102622.00;4952460;28;20035;-66
2020/12/26 01:19:27;;;;;;;24.30;10.95;;;;;;;2.19;100.00;102630.69;4952295;28;20034;-66
2020/12/26 01:21:54;;;;;;;19.92;10.15;;;;;;;2.21;100.00;102636.78;4953027;28;20066;-66
2020/12/26 01:24:20;;;;;;;23.45;10.65;;;;;;;2.22;100.00;102635.88;4952760;28;20110;-65
2020/12/26 01:26:47;;;;;;;21.83;11.23;;;;;;;2.27;100.00;102636.50;4952086;28;20085;-66
2020/12/26 01:29:13;;;;;;;24.70;10.38;;;;;;;2.26;100.00;102634.81;4952589;29;20046;-66
2020/12/26 01:31:39;;;;;;;33.65;10.70;;;;;;;2.29;100.00;102634.66;4952745;28;20078;-66
2020/12/26 01:34:05;;;;;;;30.52;10.73;;;;;;;2.39;100.00;102637.75;4951130;28;20063;-66
2020/12/26 01:36:31;;;;;;;27.67;10.27;;;;;;;2.38;100.00;102635.16;4951972;29;20102;-65
2020/12/26 01:38:56;;;;;;;25.15;9.77;;;;;;;2.37;100.00;102644.91;4951842;28;20041;-66
2020/12/26 01:41:22;;;;;;;17.42;9.45;;;;;;;2.41;100.00;102646.50;4948513;28;20445;-66
2020/12/26 01:44:01;;;;;;;19.17;9.23;;;;;;;2.41;100.00;102638.53;4952429;28;20408;-66
2020/12/26 01:46:29;;;;;;;23.40;9.77;;;;;;;2.41;100.00;102632.34;4951652;28;20257;-65
2020/12/26 01:48:56;;;;;;;16.63;9.05;;;;;;;2.54;100.00;102638.81;4952007;28;20039;-65
2020/12/26 01:51:23;;;;;;;20.17;8.48;;;;;;;2.49;100.00;102640.81;4951688;28;20023;-65
2020/12/26 01:53:50;;;;;;;15.95;7.85;;;;;;;2.44;100.00;102640.19;4952363;28;20109;-66
2020/12/26 01:56:16;;;;;;;14.55;8.13;;;;;;;2.46;100.00;102640.97;4951371;28;20066;-66
2020/12/26 01:58:43;;;;;;;14.85;7.82;;;;;;;2.52;100.00;102632.75;4952083;28;20034;-66
2020/12/26 02:01:09;;;;;;;17.27;7.80;;;;;;;2.53;100.00;102635.31;4951161;28;20144;-66
2020/12/26 02:03:36;;;;;;;14.55;6.68;;;;;;;2.54;100.00;102625.59;4951102;29;20452;-65
2020/12/26 02:06:02;;;;;;;12.18;6.65;;;;;;;2.56;100.00;102621.06;4952079;28;20086;-66
2020/12/26 02:08:28;;;;;;;10.75;5.57;;;;;;;2.58;100.00;102621.88;4951518;28;20039;-66
2020/12/26 02:10:54;;;;;;;10.02;5.38;;;;;;;2.59;100.00;102628.88;4951528;28;20098;-66
2020/12/26 02:13:19;;;;;;;12.27;5.95;;;;;;;2.56;100.00;102632.53;4951870;28;20035;-65
2020/12/26 02:15:45;;;;;;;15.80;5.82;;;;;;;2.52;100.00;102635.41;4951354;28;20031;-66
2020/12/26 02:18:11;;;;;;;14.77;6.00;;;;;;;2.49;100.00;102639.03;4951643;28;20154;-66
2020/12/26 02:20:36;;;;;;;13.65;5.93;;;;;;;2.49;100.00;102633.75;4951633;28;20077;-66
2020/12/26 02:23:03;;;;;;;15.95;6.80;;;;;;;2.46;100.00;102630.34;4952197;28;20027;-66
2020/12/26 02:25:29;;;;;;;16.40;6.75;;;;;;;2.45;100.00;102628.66;4951295;28;20027;-66
2020/12/26 02:27:55;;;;;;;15.05;6.57;;;;;;;2.44;100.00;102634.88;4951224;28;20039;-66
2020/12/26 02:30:22;;;;;;;14.13;6.78;;;;;;;2.42;100.00;102627.00;4949439;29;20043;-65
2020/12/26 02:32:47;;;;;;;17.15;6.30;;;;;;;2.35;100.00;102622.91;4951640;28;20403;-66
2020/12/26 02:35:13;;;;;;;14.07;5.97;;;;;;;2.27;100.00;102607.38;4950770;29;20039;-66
2020/12/26 02:37:41;;;;;;;10.57;5.95;;;;;;;2.22;100.00;102609.38;4950759;28;20452;-66
2020/12/26 02:40:06;;;;;;;10.48;5.95;;;;;;;2.18;100.00;102617.53;4946929;28;20027;-65
2020/12/26 02:42:32;;;;;;;14.70;6.63;;;;;;;2.10;100.00;102609.91;4942515;29;20122;-66
2020/12/26 02:44:58;;;;;;;10.45;5.90;;;;;;;2.04;100.00;102607.53;4950744;28;20078;-66
2020/12/26 02:47:24;;;;;;;15.52;7.35;;;;;;;1.99;100.00;102604.25;4964731;28;20035;-66
2020/12/26 02:49:49;;;;;;;16.67;5.93;;;;;;;1.95;100.00;102603.50;4950994;28;20033;-66
2020/12/26 02:52:15;;;;;;;14.75;6.45;;;;;;;1.89;100.00;102595.00;4951040;28;20031;-66
2020/12/26 02:54:41;;;;;;;18.27;6.78;;;;;;;1.88;100.00;102588.84;4950829;28;20046;-66
2020/12/26 02:57:07;;;;;;;21.50;6.97;;;;;;;1.83;100.00;102589.97;4950322;28;20111;-66
2020/12/26 02:59:32;;;;;;;14.77;6.72;;;;;;;1.77;100.00;102586.66;4950484;28;20484;-66
2020/12/26 03:01:58;;;;;;;14.15;7.07;;;;;;;1.74;100.00;102581.50;4950576;28;20046;-66
2020/12/26 03:04:24;;;;;;;18.33;6.97;;;;;;;1.73;100.00;102574.50;4947663;28;20408;-66
2020/12/26 03:06:50;;;;;;;17.60;7.50;;;;;;;1.68;100.00;102571.19;4947720;28;20766;-66
2020/12/26 03:09:15;;;;;;;16.85;7.88;;;;;;;1.66;100.00;102558.97;4950466;28;20114;-66
2020/12/26 03:11:41;;;;;;;17.88;9.77;;;;;;;1.64;100.00;102563.44;4950758;28;20113;-66
2020/12/26 03:14:15;;;;;;;17.77;8.43;;;;;;;1.62;100.00;102557.38;4950158;28;20067;-66
2020/12/26 03:16:41;;;;;;;21.42;9.15;;;;;;;1.60;100.00;102552.13;4950206;28;20035;-66
2020/12/26 03:19:07;;;;;;;21.83;10.07;;;;;;;1.60;100.00;102548.63;4950449;28;20042;-66
2020/12/26 03:21:33;;;;;;;23.05;10.25;;;;;;;1.61;100.00;102538.00;4950427;28;20456;-66
2020/12/26 03:23:58;;;;;;;22.90;9.82;;;;;;;1.61;100.00;102537.13;4950300;29;20032;-65
2020/12/26 03:26:24;;;;;;;20.38;9.90;;;;;;;1.61;100.00;102543.28;4949421;28;20551;-66
2020/12/26 03:28:50;;;;;;;27.00;9.23;;;;;;;1.61;100.00;102535.34;4950365;28;20042;-66
2020/12/26 03:31:16;;;;;;;18.17;9.18;;;;;;;1.61;100.00;102527.41;4950095;28;20047;-66
2020/12/26 03:33:41;;;;;;;21.20;10.25;;;;;;;1.60;100.00;102524.81;4950472;28;20125;-66
2020/12/26 03:36:07;;;;;;;19.83;9.35;;;;;;;1.59;100.00;102518.66;4949815;28;20495;-66
2020/12/26 03:38:33;;;;;;;14.73;8.82;;;;;;;1.57;100.00;102517.91;4949750;28;20038;-66
2020/12/26 03:41:00;;;;;;;21.17;9.65;;;;;;;1.55;100.00;102522.38;4946425;28;20027;-65
2020/12/26 03:43:25;;;;;;;18.77;9.77;;;;;;;1.54;100.00;102516.22;4950182;28;20027;-66
2020/12/26 03:45:51;;;;;;;14.38;8.23;;;;;;;1.55;100.00;102511.78;4950481;28;20039;-66
2020/12/26 03:48:16;;;;;;;22.15;9.75;;;;;;;1.53;100.00;102508.38;4949529;28;20071;-66
2020/12/26 03:50:42;;;;;;;22.83;10.68;;;;;;;1.55;100.00;102509.16;4950516;28;20042;-66
2020/12/26 03:53:07;;;;;;;19.23;9.48;;;;;;;1.55;100.00;102499.41;4950039;28;20035;-66
2020/12/26 03:55:33;;;;;;;18.83;9.00;;;;;;;1.55;100.00;102496.78;4950351;28;20035;-66
2020/12/26 03:57:59;;;;;;;21.70;8.98;;;;;;;1.57;100.00;102495.88;4949410;28;20039;-66
2020/12/26 04:00:25;;;;;;;18.20;8.60;;;;;;;1.57;100.00;102490.59;4950787;28;20822;-65
2020/12/26 04:02:51;;;;;;;18.70;9.30;;;;;;;1.56;100.00;102479.16;4949969;28;20044;-66
2020/12/26 04:05:17;;;;;;;26.25;9.40;;;;;;;1.55;100.00;102480.91;4950661;28;20035;-66
2020/12/26 04:07:43;;;;;;;26.67;9.75;;;;;;;1.56;100.00;102487.09;4949160;28;20037;-65
2020/12/26 04:10:08;;;;;;;21.42;9.45;;;;;;;1.55;100.00;102477.41;4964789;28;20036;-66
2020/12/26 04:12:34;;;;;;;19.75;9.75;;;;;;;1.55;100.00;102483.56;4949672;28;20041;-66
2020/12/26 04:15:00;;;;;;;19.00;9.90;;;;;;;1.59;100.00;102473.69;4950219;28;20035;-66
2020/12/26 04:17:25;;;;;;;20.42;8.55;;;;;;;1.60;100.00;102477.19;4949449;28;20073;-66
2020/12/26 04:19:51;;;;;;;17.67;9.45;;;;;;;1.59;100.00;102479.00;4950685;28;20642;-66
2020/12/26 04:22:16;;;;;;;22.38;9.10;;;;;;;1.57;100.00;102480.84;4949785;28;20027;-66
2020/12/26 04:24:42;;;;;;;14.45;7.82;;;;;;;1.53;100.00;102481.91;4950380;28;20028;-66
2020/12/26 04:27:08;;;;;;;21.92;8.63;;;;;;;1.51;100.00;102486.44;4948495;28;20265;-66
2020/12/26 04:29:33;;;;;;;20.58;7.95;;;;;;;1.48;100.00;102475.97;4950331;28;20111;-66
2020/12/26 04:31:59;;;;;;;20.50;8.40;;;;;;;1.47;100.00;102476.91;4949684;28;20472;-66
2020/12/26 04:34:25;;;;;;;20.15;8.02;;;;;;;1.45;100.00;102478.75;4950131;28;20117;-66
2020/12/26 04:36:50;;;;;;;16.17;8.18;;;;;;;1.40;100.00;102470.16;4948878;28;20047;-66
2020/12/26 04:39:16;;;;;;;18.13;10.10;;;;;;;1.35;100.00;102469.50;4949788;28;20094;-65
2020/12/26 04:41:41;;;;;;;16.02;8.43;;;;;;;1.33;100.00;102466.06;4945584;28;20371;-66
2020/12/26 04:44:09;;;;;;;19.50;7.95;;;;;;;1.33;100.00;102466.06;4949934;28;20035;-65
2020/12/26 04:46:37;;;;;;;20.92;9.38;;;;;;;1.29;100.00;102462.69;4949043;28;20496;-65
2020/12/26 04:49:05;;;;;;;15.05;8.38;;;;;;;1.25;100.00;102461.97;4949771;28;20141;-66
2020/12/26 04:51:33;;;;;;;22.23;9.93;;;;;;;1.28;100.00;102461.84;4949525;28;20031;-66
2020/12/26 04:54:07;;;;;;;21.42;8.82;;;;;;;1.25;100.00;102464.59;4949394;28;20313;-66
2020/12/26 04:56:39;;;;;;;18.60;7.82;;;;;;;1.19;100.00;102456.94;4949233;28;20062;-65
2020/12/26 04:59:07;;;;;;;21.90;8.68;;;;;;;1.16;100.00;102459.75;4949974;28;20086;-66
2020/12/26 05:01:36;;;;;;;16.23;7.70;;;;;;;1.22;100.00;102463.91;4949528;28;20512;-66
2020/12/26 05:04:02;;;;;;;19.50;8.32;;;;;;;1.22;100.00;102455.97;4949266;28;20564;-66
2020/12/26 05:06:30;;;;;;;18.63;8.85;;;;;;;1.18;100.00;102449.94;4948781;28;20122;-65
2020/12/26 05:08:56;;;;;;;22.17;8.50;;;;;;;1.19;100.00;102441.06;4949589;28;20100;-66
2020/12/26 05:11:21;;;;;;;19.60;8.13;;;;;;;1.23;100.00;102445.31;4953385;28;20523;-66
2020/12/26 05:13:47;;;;;;;20.15;7.97;;;;;;;1.21;100.00;102444.53;4952698;28;20094;-66
2020/12/26 05:16:12;;;;;;;21.50;8.93;;;;;;;1.19;100.00;102441.06;4952903;28;20039;-66
2020/12/26 05:18:38;;;;;;;16.33;7.25;;;;;;;1.16;100.00;102435.94;4951854;28;20495;-66
2020/12/26 05:21:05;;;;;;;19.55;9.27;;;;;;;1.11;100.00;102437.94;4952661;28;20071;-66
2020/12/26 05:23:30;;;;;;;19.73;8.07;;;;;;;1.07;100.00;102438.97;4967082;28;20506;-66
2020/12/26 05:25:56;;;;;;;20.85;8.02;;;;;;;1.11;100.00;102432.66;4953234;28;20054;-66
2020/12/26 05:28:33;;;;;;;18.85;7.10;;;;;;;1.06;100.00;102426.69;4951531;28;20168;-66
2020/12/26 05:31:07;;;;;;;23.67;9.48;;;;;;;0.99;100.00;102427.88;4953074;28;20023;-66
2020/12/26 05:33:33;;;;;;;18.75;7.65;;;;;;;1.01;100.00;102433.97;4951701;28;20122;-66
2020/12/26 05:36:05;;;;;;;18.25;7.70;;;;;;;1.00;100.00;102429.56;4952615;28;20035;-66
2020/12/26 05:38:31;;;;;;;16.35;7.10;;;;;;;0.98;100.00;102423.50;4952178;28;20037;-66
2020/12/26 05:41:00;;;;;;;15.68;6.38;;;;;;;0.97;100.00;102435.88;4948561;28;20023;-66
2020/12/26 05:43:28;;;;;;;14.35;7.28;;;;;;;0.94;100.00;102422.78;4952285;28;20027;-66
2020/12/26 05:45:54;;;;;;;16.98;7.10;;;;;;;0.91;100.00;102415.00;4952447;28;20043;-66
2020/12/26 05:48:23;;;;;;;14.68;6.97;;;;;;;0.89;100.00;102423.91;4951206;28;20086;-66
2020/12/26 05:50:53;;;;;;;15.75;7.47;;;;;;;0.88;100.00;102424.84;4952145;28;20384;-66
2020/12/26 05:53:23;;;;;;;14.65;6.78;;;;;;;0.81;100.00;102421.59;4952268;28;20385;-65
2020/12/26 05:55:49;;;;;;;21.48;7.00;;;;;;;0.82;100.00;102427.75;4952513;28;20094;-66
2020/12/26 05:58:19;;;;;;;13.23;6.00;;;;;;;0.83;100.00;102426.81;4951340;28;20428;-66
2020/12/26 06:00:45;;;;;;;16.40;6.78;;;;;;;0.86;100.00;102426.69;4951691;28;20085;-66
2020/12/26 06:03:22;;;;;;;15.10;6.07;;;;;;;0.92;100.00;102429.06;4952144;28;20196;-66
2020/12/26 06:05:48;;;;;;;10.98;6.85;;;;;;;0.96;100.00;102428.88;4951836;28;20400;-66
2020/12/26 06:08:16;;;;;;;18.08;6.68;;;;;;;0.90;100.00;102418.53;4952086;28;20038;-66
2020/12/26 06:10:49;;;;;;;12.65;6.50;;;;;;;0.88;100.00;102411.63;4951564;28;20118;-66
2020/12/26 06:13:17;;;;;;;15.57;6.68;;;;;;;0.82;100.00;102409.25;4951648;28;20032;-65
2020/12/26 06:15:49;;;;;;;15.77;7.20;;;;;;;0.82;100.00;102422.47;4951745;28;20496;-66
2020/12/26 06:18:16;;;;;;;13.45;6.28;;;;;;;0.76;100.00;102424.44;4951624;28;20065;-66
2020/12/26 06:20:42;;;;;;;13.43;6.38;;;;;;;0.75;100.00;102435.94;4951450;28;20400;-66
2020/12/26 06:23:14;;;;;;;12.13;6.22;;;;;;;0.75;100.00;102432.41;4951987;28;20096;-66
2020/12/26 06:25:42;;;;;;;14.05;5.35;;;;;;;0.69;100.00;102430.03;4951307;28;20037;-66
2020/12/26 06:28:20;;;;;;;14.20;5.93;;;;;;;0.71;100.00;102434.34;4951524;28;20042;-66
2020/12/26 06:30:47;;;;;;;12.15;6.18;;;;;;;0.70;100.00;102437.03;4951440;28;20035;-66
2020/12/26 06:33:13;;;;;;;15.07;5.35;;;;;;;0.77;100.00;102447.28;4951521;28;20396;-66
2020/12/26 06:35:42;;;;;;;12.50;6.50;;;;;;;0.79;100.00;102449.84;4951769;28;20031;-66
2020/12/26 06:38:12;;;;;;;14.18;6.00;;;;;;;0.75;100.00;102456.19;4944260;29;20396;-65
2020/12/26 06:40:49;;;;;;;17.17;5.90;;;;;;;0.86;100.00;102455.75;4947780;28;20484;-66
2020/12/26 06:43:44;;;;;;;13.15;5.85;;;;;;;0.96;100.00;102454.44;4951630;28;20393;-65
2020/12/26 06:46:13;;;;;;;16.48;5.93;;;;;;;1.04;100.00;102447.88;4951041;28;20118;-66
2020/12/26 06:48:39;;;;;;;15.57;4.93;;;;;;;1.03;100.00;102445.31;4951310;28;20043;-65
2020/12/26 06:51:23;;;;;;;12.43;5.90;;;;;;;0.92;100.00;102459.00;4950993;28;20534;-66
2020/12/26 06:53:49;;;;;;;16.95;6.65;;;;;;;0.89;100.00;102453.81;4951211;28;20319;-66
2020/12/26 06:56:33;;;;;;;11.32;5.05;;;;;;;0.94;100.00;102448.34;4950875;28;20495;-65
2020/12/26 06:59:17;;;;;;;11.45;5.15;;;;;;;0.93;100.00;102450.13;4950922;28;20067;-65
2020/12/26 07:01:44;;;;;;;15.35;5.03;;;;;;;0.97;100.00;102435.03;4951128;28;20404;-65
2020/12/26 07:04:12;;;;;;;15.68;4.95;;;;;;;0.99;100.00;102434.00;4950621;28;20027;-66
2020/12/26 07:06:45;;;;;;;11.98;4.85;;;;;;;1.05;100.00;102438.16;4950699;28;20078;-65
2020/12/26 07:09:13;;;;;;;9.88;5.82;;;;;;;1.01;100.00;102442.75;4951198;28;20038;-66
2020/12/26 07:11:44;;;;;;;17.35;5.63;;;;;;;1.04;100.00;102436.47;4950806;28;20289;-66
2020/12/26 07:14:27;;;;;;;15.35;5.32;;;;;;;1.10;100.00;102443.25;4950913;28;20043;-65
2020/12/26 07:16:53;;;;;;;15.93;5.65;;;;;;;1.12;100.00;102437.00;4950486;28;20496;-65
2020/12/26 07:19:19;;;;;;;10.38;4.43;;;;;;;1.17;100.00;102442.09;4950787;28;20134;-65
2020/12/26 07:21:49;;;;;;;14.82;5.28;;;;;;;1.15;100.00;102438.63;4950912;28;20496;-66
2020/12/26 07:24:16;;;;;;;11.63;4.13;;;;;;;1.17;100.00;102435.00;4951082;28;20039;-66
2020/12/26 07:26:41;;;;;;;12.32;4.53;;;;;;;1.24;100.00;102439.09;4950644;28;20081;-66
2020/12/26 07:29:10;;;;;;;13.95;4.50;;;;;;;1.30;100.00;102432.66;4951235;28;20035;-66
2020/12/26 07:31:46;;;;;;;13.50;3.85;;;;;;;1.39;100.00;102442.84;4950771;28;20031;-66
2020/12/26 07:34:40;;;;;;;15.43;4.53;;;;;;;1.46;100.00;102443.47;4950718;28;20039;-66
2020/12/26 07:37:06;;;;;;;12.43;4.30;;;;;;;1.61;100.00;102448.06;4950383;28;20031;-66
2020/12/26 07:39:32;;;;;;;8.80;3.65;;;;;;;1.61;100.00;102444.53;4950931;28;20035;-66
2020/12/26 07:41:58;;;;;;;11.50;3.92;;;;;;;1.67;100.00;102447.78;4950288;28;20028;-66
2020/12/26 07:44:28;;;;;;;11.35;3.60;;;;;;;1.67;100.00;102453.06;4951166;28;20050;-66
2020/12/26 07:46:55;;;;;;;11.82;3.70;;;;;;;1.73;100.00;102450.13;4949653;28;20031;-66
2020/12/26 07:49:21;;;;;;;17.13;4.15;;;;;;;1.72;100.00;102453.72;4950813;28;20043;-66
2020/12/26 07:52:05;;;;;;;8.63;3.70;;;;;;;1.74;100.00;102445.69;4937950;29;20042;-66
2020/12/26 07:54:31;;;;;;;13.77;5.13;;;;;;;1.77;100.00;102449.06;4950818;28;20046;-65
2020/12/26 07:56:57;;;;;;;22.83;4.57;;;;;;;1.78;100.00;102456.06;4950281;28;20520;-66
2020/12/26 07:59:23;;;;;;;18.05;4.90;;;;;;;1.78;100.00;102453.41;4950551;28;20070;-66
2020/12/26 08:01:50;;;;;;;9.15;4.07;;;;;;;1.76;100.00;102457.09;4950832;28;20062;-66
2020/12/26 08:04:16;;;;;;;16.58;4.13;;;;;;;1.68;100.00;102453.91;4950313;28;20039;-66
2020/12/26 08:06:43;;;;;;;12.52;4.22;;;;;;;1.58;100.00;102450.81;4950397;28;20027;-66
2020/12/26 08:09:08;;;;;;;13.13;4.95;;;;;;;1.45;100.00;102455.78;4950510;28;20031;-66
2020/12/26 08:11:34;;;;;;;9.40;3.50;;;;;;;1.39;100.00;102455.22;4950465;28;20054;-66
2020/12/26 08:14:00;;;;;;;10.05;3.38;;;;;;;1.37;100.00;102446.50;4950090;28;20503;-66
2020/12/26 08:16:26;;;;;;;15.32;4.82;;;;;;;1.28;100.00;102445.97;4950165;28;20086;-65
2020/12/26 08:18:52;;;;;;;13.50;3.78;;;;;;;1.30;100.00;102448.53;4950338;28;20039;-66
2020/12/26 08:21:21;;;;;;;14.93;3.40;;;;;;;1.24;100.00;102444.38;4936465;28;20033;-66
2020/12/26 08:23:56;;;;;;;11.48;4.00;;;;;;;1.32;100.00;102451.13;4935706;28;20169;-66
2020/12/26 08:26:23;;;;;;;15.15;4.20;;;;;;;1.41;100.00;102445.44;4949020;28;20488;-66
2020/12/26 08:28:50;;;;;;;12.85;3.60;;;;;;;1.49;100.00;102438.00;4948634;28;20062;-65
2020/12/26 08:31:20;;;;;;;12.75;4.82;;;;;;;1.53;100.00;102439.59;4948787;29;20094;-66
2020/12/26 08:33:48;;;;;;;11.43;3.67;;;;;;;1.51;100.00;102436.16;4947988;28;20555;-66
2020/12/26 08:36:28;;;;;;;11.23;4.90;;;;;;;1.49;100.00;102430.06;4948456;28;20027;-66
2020/12/26 08:38:58;;;;;;;10.20;3.78;;;;;;;1.40;100.00;102439.28;4951106;28;20039;-65
2020/12/26 08:41:24;;;;;;;16.55;4.15;;;;;;;1.37;100.00;102428.84;4944972;28;20511;-66
2020/12/26 08:43:51;;;;;;;9.65;4.18;;;;;;;1.35;100.00;102419.25;4948454;28;20051;-66
2020/12/26 08:46:19;;;;;;;14.57;3.60;;;;;;;1.35;100.00;102412.16;4950547;29;20027;-66
2020/12/26 08:48:46;;;;;;;11.55;4.35;;;;;;;1.34;100.00;102406.97;4952986;28;20049;-66
2020/12/26 08:51:24;;;;;;;16.65;4.35;;;;;;;1.32;100.00;102414.13;4951481;29;20031;-66
2020/12/26 08:53:52;;;;;;;9.63;3.67;;;;;;;1.35;100.00;102403.38;4950458;29;20043;-65
2020/12/26 08:56:37;;;;;;;18.73;4.22;;;;;;;1.37;100.00;102391.81;4950817;29;20030;-66
2020/12/26 08:59:04;;;;;;;15.60;5.07;;;;;;;1.39;100.00;102382.03;4952260;28;20247;-66
2020/12/26 09:01:30;;;;;;;9.50;4.10;;;;;;;1.45;100.00;102387.03;4951091;28;20126;-66
2020/12/26 09:03:57;;;;;;;13.85;4.60;;;;;;;1.48;100.00;102383.41;4951905;28;20626;-66
2020/12/26 09:06:39;;;;;;;11.95;4.13;;;;;;;1.52;100.00;102384.97;4951492;28;20035;-66
2020/12/26 09:09:13;;;;;;;13.63;4.10;;;;;;;1.59;100.00;102367.88;4952010;28;20098;-66
2020/12/26 09:11:38;;;;;;;12.25;4.95;;;;;;;1.69;100.00;102353.28;4951901;28;20038;-66
2020/12/26 09:14:15;;;;;;;14.05;4.35;;;;;;;1.79;100.00;102351.94;4951848;28;20038;-66
2020/12/26 09:16:41;;;;;;;14.90;4.25;;;;;;;1.95;100.00;102348.53;4951458;28;20035;-66
2020/12/26 09:19:07;;;;;;;12.90;4.10;;;;;;;2.11;100.00;102351.31;4951746;28;20130;-66
2020/12/26 09:21:32;;;;;;;11.15;4.63;;;;;;;2.22;100.00;102359.59;4952357;28;20110;-66
2020/12/26 09:23:58;;;;;;;12.52;4.30;;;;;;;2.29;100.00;102355.72;4951260;28;20047;-66
2020/12/26 09:26:36;;;;;;;10.82;5.28;;;;;;;2.39;100.00;102351.66;4951618;28;20031;-65
2020/12/26 09:29:03;;;;;;;10.57;4.20;;;;;;;2.48;100.00;102353.84;4950911;28;20023;-66
2020/12/26 09:31:34;;;;;;;8.65;4.45;;;;;;;2.52;100.00;102350.13;4967043;28;20042;-66
2020/12/26 09:34:12;;;;;;;13.45;4.53;;;;;;;2.55;100.00;102347.31;4965675;28;20038;-66
2020/12/26 09:36:37;;;;;;;11.05;3.90;;;;;;;2.60;100.00;102353.22;4951116;28;20031;-66
2020/12/26 09:39:05;;;;;;;10.38;4.18;;;;;;;2.52;100.00;102349.28;4951609;28;20078;-66
2020/12/26 09:41:42;;;;;;;8.93;3.67;;;;;;;2.54;100.00;102350.03;4947348;28;20114;-66
2020/12/26 09:44:07;;;;;;;8.70;3.42;;;;;;;2.45;100.00;102351.34;4951177;28;20042;-66
2020/12/26 09:46:33;;;;;;;10.38;3.90;;;;;;;2.57;100.00;102344.59;4951219;28;20035;-66
2020/12/26 09:48:58;;;;;;;10.15;3.55;;;;;;;2.66;100.00;102344.13;4951434;28;20496;-66
2020/12/26 09:51:24;;;;;;;12.63;3.63;;;;;;;2.97;100.00;102342.53;4951508;28;20039;-66
2020/12/26 09:53:50;;;;;;;13.73;3.92;;;;;;;3.17;100.00;102331.72;4964772;28;20147;-66
2020/12/26 09:56:16;;;;;;;5.03;2.90;;;;;;;3.49;100.00;102335.28;4948209;28;20039;-66
2020/12/26 09:58:43;;;;;;;13.20;3.55;;;;;;;3.72;100.00;102320.75;4951390;28;20038;-66
2020/12/26 10:01:17;;;;;;;7.80;2.38;;;;;;;3.98;99.81;102310.44;4951134;28;20031;-66
2020/12/26 10:03:44;;;;;;;7.83;2.80;;;;;;;4.06;98.97;102318.81;4951255;28;20126;-66
2020/12/26 10:06:11;;;;;;;19.77;4.00;;;;;;;4.16;100.00;102304.03;4950634;28;20050;-65
2020/12/26 10:08:37;;;;;;;8.15;2.85;;;;;;;4.23;99.21;102304.56;4949247;29;20081;-66
2020/12/26 10:11:02;;;;;;;8.25;3.20;;;;;;;4.19;98.32;102295.91;4950871;28;20287;-66
2020/12/26 10:13:28;;;;;;;17.08;3.65;;;;;;;4.15;98.54;102292.56;4950961;28;20043;-66
2020/12/26 10:15:53;;;;;;;7.90;3.20;;;;;;;4.19;98.05;102285.28;4950403;28;20039;-65
2020/12/26 10:18:19;;;;;;;22.60;3.95;;;;;;;4.11;98.68;102274.25;4950446;28;20046;-65
2020/12/26 10:20:45;;;;;;;8.35;2.47;;;;;;;4.04;98.03;102276.41;4949583;29;20447;-66
2020/12/26 10:23:10;;;;;;;8.07;3.22;;;;;;;4.02;98.14;102280.13;4949938;28;20035;-66
2020/12/26 10:25:36;;;;;;;6.03;3.22;;;;;;;3.92;98.61;102273.63;4950525;28;20505;-65
2020/12/26 10:28:03;;;;;;;9.00;2.80;;;;;;;3.83;98.38;102275.00;4950572;28;20055;-65
2020/12/26 10:30:28;;;;;;;11.50;3.67;;;;;;;3.75;99.86;102274.56;4950567;28;20034;-65
2020/12/26 10:32:54;;;;;;;14.02;3.85;;;;;;;3.79;99.23;102268.16;4965430;28;20412;-65
2020/12/26 10:35:19;;;;;;;13.90;3.95;;;;;;;3.86;98.13;102253.56;4950157;28;20031;-65
2020/12/26 10:37:45;;;;;;;13.25;3.40;;;;;;;3.85;98.63;102258.03;4949938;28;20467;-65
2020/12/26 10:40:10;;;;;;;12.40;4.00;;;;;;;3.84;98.94;102256.31;4949713;28;20038;-65
2020/12/26 10:42:36;;;;;;;12.52;4.05;;;;;;;3.88;98.41;102243.72;4950061;28;20031;-65
2020/12/26 10:45:03;;;;;;;11.57;3.90;;;;;;;3.95;98.96;102252.19;4949851;28;20527;-65
2020/12/26 10:47:29;;;;;;;17.27;4.25;;;;;;;4.01;99.12;102247.38;4950351;28;20504;-66
2020/12/26 10:49:55;;;;;;;12.80;3.92;;;;;;;4.01;98.90;102252.69;4950038;28;20495;-65
2020/12/26 10:52:20;;;;;;;12.23;4.07;;;;;;;4.01;99.31;102246.50;4950023;28;20023;-66
2020/12/26 10:54:46;;;;;;;11.40;3.60;;;;;;;4.09;100.00;102236.31;4949568;28;20093;-66
2020/12/26 10:57:11;;;;;;;13.57;4.25;;;;;;;4.18;99.39;102230.47;4949982;28;20039;-66
2020/12/26 10:59:37;;;;;;;14.80;4.95;;;;;;;4.29;98.34;102219.19;4950063;28;20034;-65
2020/12/26 11:02:03;;;;;;;15.40;5.28;;;;;;;4.25;97.77;102215.00;4949749;28;20042;-65
2020/12/26 11:04:29;;;;;;;10.98;4.45;;;;;;;4.34;98.82;102211.78;4950571;28;20114;-65
2020/12/26 11:06:55;;;;;;;18.00;6.50;;;;;;;4.31;98.52;102212.81;4948733;28;20437;-66
2020/12/26 11:09:20;;;;;;;10.38;4.00;;;;;;;4.34;96.96;102210.00;4949746;28;20635;-65
2020/12/26 11:11:47;;;;;;;20.17;5.45;;;;;;;4.34;98.01;102207.34;4949559;28;20035;-66
2020/12/26 11:14:13;;;;;;;13.52;4.97;;;;;;;4.43;98.35;102202.41;4949671;28;20133;-66
2020/12/26 11:16:39;;;;;;;12.68;4.35;;;;;;;4.54;96.69;102203.47;4949698;28;20319;-66
2020/12/26 11:19:04;;;;;;;20.98;5.38;;;;;;;4.65;95.73;102205.44;4949364;28;20518;-66